createdAt,value
2018-07-25T00:02:08.446Z,7.73
2018-07-25T00:04:36.271Z,7.03
2018-07-25T00:10:05.090Z,7.70
2018-07-25T00:12:33.975Z,6.87
2018-07-25T00:18:02.840Z,8.60
2018-07-25T00:20:30.891Z,7.63
2018-07-25T00:22:58.753Z,7.53
2018-07-25T00:25:26.766Z,8.33
2018-07-25T00:27:54.805Z,8.00
2018-07-25T00:30:22.567Z,7.80
2018-07-25T00:32:51.073Z,10.00
2018-07-25T00:35:19.047Z,7.60
2018-07-25T00:37:47.504Z,8.53
2018-07-25T00:40:15.420Z,9.40
2018-07-25T00:42:43.986Z,9.40
2018-07-25T00:45:11.830Z,7.47
2018-07-25T00:47:41.050Z,7.70
2018-07-25T00:50:09.959Z,8.10
2018-07-25T00:52:37.936Z,8.00
2018-07-25T00:55:05.856Z,8.50
2018-07-25T00:57:33.768Z,7.77
2018-07-25T01:00:02.239Z,7.97
2018-07-25T01:02:30.164Z,8.63
2018-07-25T01:04:58.090Z,8.53
2018-07-25T01:07:27.124Z,8.10
2018-07-25T01:09:54.909Z,7.10
2018-07-25T01:12:22.914Z,9.43
2018-07-25T01:14:50.873Z,8.30
2018-07-25T01:17:19.474Z,9.57
2018-07-25T01:19:48.184Z,9.13
2018-07-25T01:22:16.100Z,8.17
2018-07-25T01:24:44.086Z,8.80
2018-07-25T01:27:12.699Z,7.20
2018-07-25T01:29:40.620Z,6.97
2018-07-25T01:32:08.529Z,8.30
2018-07-25T01:34:36.425Z,9.00
2018-07-25T01:37:04.325Z,6.20
2018-07-25T01:39:32.188Z,9.50
2018-07-25T01:42:00.108Z,8.03
2018-07-25T01:44:28.027Z,9.40
2018-07-25T01:46:55.962Z,8.40
2018-07-25T01:49:23.858Z,9.03
2018-07-25T01:51:51.739Z,8.90
2018-07-25T01:54:19.683Z,10.33
2018-07-25T01:56:47.470Z,8.40
2018-07-25T01:59:15.393Z,9.60
2018-07-25T02:01:44.123Z,7.93
2018-07-25T02:04:12.281Z,7.83
2018-07-25T02:06:41.130Z,7.70
2018-07-25T02:09:10.921Z,9.07
2018-07-25T02:11:39.071Z,8.57
2018-07-25T02:14:06.997Z,9.73
2018-07-25T02:16:34.889Z,10.67
2018-07-25T02:19:03.317Z,9.50
2018-07-25T02:21:31.780Z,9.07
2018-07-25T02:23:59.871Z,9.57
2018-07-25T02:26:27.777Z,8.27
2018-07-25T02:28:56.235Z,7.60
2018-07-25T02:31:24.147Z,7.93
2018-07-25T02:33:59.085Z,9.27
2018-07-25T02:36:27.017Z,9.10
2018-07-25T02:38:54.944Z,8.60
2018-07-25T02:41:22.949Z,10.20
2018-07-25T02:43:50.781Z,9.63
2018-07-25T02:46:18.968Z,9.50
2018-07-25T02:51:29.685Z,8.77
2018-07-25T02:53:58.091Z,7.67
2018-07-25T02:56:27.043Z,9.70
2018-07-25T02:58:55.135Z,8.80
2018-07-25T03:01:22.885Z,8.43
2018-07-25T03:03:52.162Z,6.80
2018-07-25T03:06:20.404Z,8.60
2018-07-25T03:08:48.271Z,9.70
2018-07-25T03:11:16.178Z,9.00
2018-07-25T03:13:44.112Z,9.20
2018-07-25T03:16:12.818Z,9.67
2018-07-25T03:18:41.944Z,10.93
2018-07-25T03:21:09.928Z,9.87
2018-07-25T03:23:38.334Z,9.53
2018-07-25T03:26:06.699Z,11.20
2018-07-25T03:28:34.627Z,10.30
2018-07-25T03:31:02.622Z,11.37
2018-07-25T03:33:30.429Z,9.03
2018-07-25T03:35:59.378Z,10.60
2018-07-25T03:38:27.871Z,9.27
2018-07-25T03:40:55.651Z,9.43
2018-07-25T03:43:23.814Z,9.03
2018-07-25T03:45:52.168Z,9.10
2018-07-25T03:48:20.150Z,11.70
2018-07-25T03:50:48.096Z,9.67
2018-07-25T03:53:15.878Z,9.30
2018-07-25T03:55:44.552Z,10.20
2018-07-25T03:58:13.373Z,10.60
2018-07-25T04:00:41.126Z,10.30
2018-07-25T04:03:09.605Z,11.00
2018-07-25T04:05:37.565Z,10.73
2018-07-25T04:08:05.547Z,11.13
2018-07-25T04:10:33.306Z,10.23
2018-07-25T04:13:01.829Z,11.77
2018-07-25T04:15:29.803Z,10.67
2018-07-25T04:17:57.767Z,9.80
2018-07-25T04:20:25.718Z,9.03
2018-07-25T04:22:54.307Z,11.23
2018-07-25T04:25:22.211Z,9.77
2018-07-25T04:27:50.215Z,12.43
2018-07-25T04:30:18.165Z,10.30
2018-07-25T04:32:46.898Z,10.67
2018-07-25T04:35:16.095Z,11.10
2018-07-25T04:37:44.246Z,13.23
2018-07-25T04:40:12.826Z,9.70
2018-07-25T04:42:40.643Z,12.80
2018-07-25T04:45:09.964Z,12.20
2018-07-25T04:47:38.180Z,13.00
2018-07-25T04:50:06.371Z,13.43
2018-07-25T04:52:36.052Z,13.43
2018-07-25T04:55:04.757Z,11.90
2018-07-25T04:57:32.489Z,11.63
2018-07-25T05:00:00.963Z,11.10
2018-07-25T05:02:28.871Z,12.67
2018-07-25T05:04:56.821Z,13.60
2018-07-25T05:07:25.233Z,13.37
2018-07-25T05:09:53.137Z,13.77
2018-07-25T05:12:21.109Z,13.10
2018-07-25T05:14:49.593Z,13.70
2018-07-25T05:17:17.546Z,14.30
2018-07-25T05:19:46.237Z,14.97
2018-07-25T05:22:14.207Z,15.83
2018-07-25T05:24:42.204Z,14.80
2018-07-25T05:27:10.875Z,14.10
2018-07-25T05:29:40.076Z,13.07
2018-07-25T05:32:07.937Z,13.63
2018-07-25T05:34:35.882Z,11.90
2018-07-25T05:37:04.626Z,11.97
2018-07-25T05:39:33.173Z,12.10
2018-07-25T05:42:01.656Z,10.23
2018-07-25T05:44:29.767Z,10.53
2018-07-25T05:46:57.791Z,8.80
2018-07-25T05:49:26.028Z,8.77
2018-07-25T05:51:53.968Z,8.30
2018-07-25T05:54:21.866Z,9.63
2018-07-25T05:56:49.919Z,10.70
2018-07-25T05:59:19.099Z,8.43
2018-07-25T06:01:47.070Z,8.27
2018-07-25T06:04:15.748Z,7.70
2018-07-25T06:06:43.563Z,9.23
2018-07-25T06:09:11.512Z,7.23
2018-07-25T06:11:40.258Z,8.20
2018-07-25T06:14:08.390Z,8.57
2018-07-25T06:16:36.909Z,8.13
2018-07-25T06:19:04.875Z,7.30
2018-07-25T06:21:34.856Z,8.23
2018-07-25T06:24:02.901Z,8.20
2018-07-25T06:26:30.786Z,7.37
2018-07-25T06:28:59.369Z,8.20
2018-07-25T06:31:29.247Z,7.80
2018-07-25T06:33:57.660Z,7.90
2018-07-25T06:36:25.599Z,8.13
2018-07-25T06:38:54.342Z,8.40
2018-07-25T06:41:23.601Z,7.63
2018-07-25T06:43:51.621Z,8.50
2018-07-25T06:46:20.180Z,7.50
2018-07-25T06:48:47.936Z,6.83
2018-07-25T06:51:16.665Z,7.80
2018-07-25T06:53:44.565Z,7.97
2018-07-25T06:56:12.499Z,7.03
2018-07-25T06:58:40.449Z,6.10
2018-07-25T07:01:08.420Z,6.37
2018-07-25T07:03:36.303Z,7.00
2018-07-25T07:06:04.270Z,7.20
2018-07-25T07:08:32.232Z,6.40
2018-07-25T07:11:00.143Z,6.30
2018-07-25T07:13:27.999Z,5.80
2018-07-25T07:15:55.908Z,6.17
2018-07-25T07:18:23.772Z,5.80
2018-07-25T07:20:51.565Z,6.20
2018-07-25T07:23:19.472Z,5.57
2018-07-25T07:25:47.272Z,6.00
2018-07-25T07:28:15.723Z,5.47
2018-07-25T07:30:45.619Z,4.70
2018-07-25T07:33:14.161Z,5.10
2018-07-25T07:35:41.878Z,5.20
2018-07-25T07:38:09.783Z,5.20
2018-07-25T07:40:37.537Z,5.57
2018-07-25T07:43:05.508Z,4.50
2018-07-25T07:45:33.508Z,4.90
2018-07-25T07:48:02.155Z,4.80
2018-07-25T07:50:31.482Z,5.00
2018-07-25T07:52:59.251Z,4.20
2018-07-25T07:55:27.171Z,5.10
2018-07-25T07:57:55.087Z,3.90
2018-07-25T08:00:23.014Z,3.60
2018-07-25T08:02:50.949Z,4.00
2018-07-25T08:05:19.843Z,3.50
2018-07-25T08:07:47.865Z,3.47
2018-07-25T08:10:15.785Z,3.40
2018-07-25T08:12:44.341Z,3.10
2018-07-25T08:15:12.273Z,3.63
2018-07-25T08:17:40.165Z,3.67
2018-07-25T08:20:08.092Z,3.87
2018-07-25T08:22:36.195Z,3.07
2018-07-25T08:25:04.172Z,3.47
2018-07-25T08:27:32.090Z,3.27
2018-07-25T08:30:00.005Z,3.63
2018-07-25T08:32:27.984Z,3.17
2018-07-25T08:34:55.987Z,3.00
2018-07-25T08:37:23.729Z,2.90
2018-07-25T08:39:52.711Z,3.33
2018-07-25T08:42:20.660Z,3.47
2018-07-25T08:44:48.471Z,3.70
2018-07-25T08:47:17.447Z,4.87
2018-07-25T08:49:45.429Z,4.13
2018-07-25T08:52:14.173Z,3.60
2018-07-25T08:54:42.867Z,3.47
2018-07-25T08:57:10.804Z,4.07
2018-07-25T08:59:39.920Z,3.90
2018-07-25T09:02:07.726Z,3.53
2018-07-25T09:04:35.679Z,3.90
2018-07-25T09:07:03.678Z,3.83
2018-07-25T09:09:31.613Z,4.10
2018-07-25T09:12:00.507Z,4.10
2018-07-25T09:14:28.439Z,3.90
2018-07-25T09:16:56.451Z,4.30
2018-07-25T09:19:24.721Z,4.43
2018-07-25T09:21:52.634Z,4.67
2018-07-25T09:24:20.596Z,5.37
2018-07-25T09:26:48.511Z,5.03
2018-07-25T09:29:16.512Z,9.00
2018-07-25T09:31:44.768Z,4.90
2018-07-25T09:34:12.750Z,7.10
2018-07-25T09:36:40.701Z,15.77
2018-07-25T09:39:10.545Z,3.93
2018-07-25T09:44:17.764Z,3.53
2018-07-25T09:46:45.566Z,4.43
2018-07-25T09:49:14.266Z,3.90
2018-07-25T09:51:42.465Z,3.87
2018-07-25T09:54:11.870Z,4.40
2018-07-25T09:56:39.889Z,3.40
2018-07-25T09:59:08.123Z,4.10
2018-07-25T10:01:36.078Z,4.23
2018-07-25T10:04:05.891Z,3.80
2018-07-25T10:06:33.941Z,3.93
2018-07-25T10:09:01.933Z,4.27
2018-07-25T10:11:30.425Z,4.03
2018-07-25T10:13:59.443Z,4.20
2018-07-25T10:16:27.415Z,3.77
2018-07-25T10:18:55.783Z,3.37
2018-07-25T10:21:25.223Z,3.20
2018-07-25T10:23:53.202Z,4.20
2018-07-25T10:26:21.698Z,3.13
2018-07-25T10:28:50.243Z,4.00
2018-07-25T10:31:19.302Z,3.83
2018-07-25T10:33:47.660Z,3.43
2018-07-25T10:36:16.536Z,3.23
2018-07-25T10:38:45.042Z,3.23
2018-07-25T10:41:13.815Z,3.20
2018-07-25T10:43:42.353Z,3.60
2018-07-25T10:46:10.325Z,3.23
2018-07-25T10:48:38.345Z,3.13
2018-07-25T10:51:06.945Z,3.20
2018-07-25T10:53:35.502Z,3.10
2018-07-25T10:56:03.509Z,2.70
2018-07-25T10:58:32.389Z,3.03
2018-07-25T11:01:00.284Z,3.13
2018-07-25T11:03:28.247Z,3.93
2018-07-25T11:05:56.191Z,3.53
2018-07-25T11:08:24.169Z,11.43
2018-07-25T11:10:52.124Z,3.90
2018-07-25T11:13:20.014Z,3.70
2018-07-25T11:15:47.981Z,4.07
2018-07-25T11:18:16.935Z,3.93
2018-07-25T11:20:44.818Z,3.70
2018-07-25T11:23:14.204Z,4.00
2018-07-25T11:25:43.359Z,4.00
2018-07-25T11:28:15.894Z,3.50
2018-07-25T11:30:43.845Z,3.33
2018-07-25T11:33:11.775Z,3.70
2018-07-25T11:35:39.685Z,3.30
2018-07-25T11:38:07.501Z,3.17
2018-07-25T11:40:35.223Z,3.33
2018-07-25T11:43:02.970Z,3.73
2018-07-25T11:45:30.953Z,3.33
2018-07-25T11:47:58.730Z,3.60
2018-07-25T11:50:26.636Z,3.33
2018-07-25T11:52:54.958Z,3.90
2018-07-25T11:55:22.801Z,3.30
2018-07-25T11:57:50.753Z,4.00
2018-07-25T12:00:18.769Z,3.93
2018-07-25T12:02:46.823Z,4.03
2018-07-25T12:05:15.111Z,4.07
2018-07-25T12:07:43.039Z,3.50
2018-07-25T12:10:10.860Z,4.10
2018-07-25T12:12:38.881Z,3.97
2018-07-25T12:15:09.768Z,4.10
2018-07-25T12:17:38.346Z,4.07
2018-07-25T12:20:07.039Z,3.47
2018-07-25T12:22:35.009Z,3.87
2018-07-25T12:25:03.097Z,4.00
2018-07-25T12:27:31.959Z,3.90
2018-07-25T12:29:59.882Z,3.30
2018-07-25T12:32:28.412Z,3.60
2018-07-25T12:34:56.918Z,4.27
2018-07-25T12:37:25.290Z,3.10
2018-07-25T12:39:53.256Z,3.73
2018-07-25T12:42:21.198Z,3.93
2018-07-25T12:44:49.929Z,3.90
2018-07-25T12:47:18.429Z,4.20
2018-07-25T12:49:46.348Z,3.50
2018-07-25T12:52:15.289Z,3.00
2018-07-25T12:54:43.284Z,3.30
2018-07-25T12:57:11.134Z,3.40
2018-07-25T12:59:39.742Z,4.03
2018-07-25T13:02:08.954Z,3.67
2018-07-25T13:04:36.899Z,3.33
2018-07-25T13:07:05.464Z,3.63
2018-07-25T13:09:33.611Z,4.50
2018-07-25T13:12:01.600Z,3.30
2018-07-25T13:14:29.553Z,3.60
2018-07-25T13:16:57.969Z,3.00
2018-07-25T13:19:26.448Z,3.20
2018-07-25T13:21:54.385Z,3.27
2018-07-25T13:24:22.339Z,3.17
2018-07-25T13:26:50.887Z,3.33
2018-07-25T13:29:18.679Z,3.90
2018-07-25T13:31:47.322Z,3.63
2018-07-25T13:34:15.123Z,3.40
2018-07-25T13:36:43.094Z,2.77
2018-07-25T13:39:11.050Z,2.83
2018-07-25T13:41:38.993Z,2.47
2018-07-25T13:44:07.068Z,2.83
2018-07-25T13:46:35.035Z,3.10
2018-07-25T13:49:02.842Z,2.27
2018-07-25T13:51:32.143Z,2.70
2018-07-25T13:54:00.115Z,2.80
2018-07-25T13:56:29.011Z,2.43
2018-07-25T13:58:56.935Z,6.40
2018-07-25T14:01:24.749Z,2.80
2018-07-25T14:03:53.133Z,2.50
2018-07-25T14:06:21.084Z,2.57
2018-07-25T14:08:49.052Z,3.00
2018-07-25T14:11:17.012Z,2.50
2018-07-25T14:13:44.822Z,2.60
2018-07-25T14:16:13.423Z,2.50
2018-07-25T14:18:41.267Z,2.60
2018-07-25T14:21:09.184Z,2.67
2018-07-25T14:23:37.219Z,2.13
2018-07-25T14:26:05.676Z,2.70
2018-07-25T14:28:33.757Z,3.00
2018-07-25T14:31:01.904Z,3.07
2018-07-25T14:33:30.383Z,2.50
2018-07-25T14:35:58.480Z,2.30
2018-07-25T14:38:27.479Z,2.60
2018-07-25T14:40:55.443Z,2.10
2018-07-25T14:43:23.468Z,2.40
2018-07-25T14:45:51.444Z,2.83
2018-07-25T14:48:19.639Z,2.50
2018-07-25T14:50:47.627Z,2.50
2018-07-25T14:53:15.576Z,2.00
2018-07-25T14:55:43.525Z,2.23
2018-07-25T14:58:12.008Z,2.23
2018-07-25T15:00:39.825Z,2.50
2018-07-25T15:03:07.785Z,2.20
2018-07-25T15:05:36.247Z,3.00
2018-07-25T15:08:04.580Z,2.40
2018-07-25T15:10:32.495Z,2.70
2018-07-25T15:13:00.477Z,2.20
2018-07-25T15:17:57.339Z,3.23
2018-07-25T15:20:25.610Z,2.33
2018-07-25T15:22:54.342Z,2.30
2018-07-25T15:25:22.256Z,2.47
2018-07-25T15:27:50.441Z,2.30
2018-07-25T15:30:18.372Z,2.17
2018-07-25T15:32:46.656Z,2.70
2018-07-25T15:35:14.628Z,2.20
2018-07-25T15:37:43.393Z,2.30
2018-07-25T15:40:11.462Z,2.10
2018-07-25T15:42:39.358Z,1.80
2018-07-25T15:45:08.259Z,2.80
2018-07-25T15:47:42.207Z,2.40
2018-07-25T15:50:10.804Z,2.30
2018-07-25T15:52:39.287Z,2.40
2018-07-25T15:55:07.228Z,2.20
2018-07-25T15:57:35.128Z,1.90
2018-07-25T16:00:03.622Z,2.17
2018-07-25T16:02:31.552Z,1.57
2018-07-25T16:04:59.472Z,1.57
2018-07-25T16:07:27.317Z,1.70
2018-07-25T16:09:55.660Z,2.10
2018-07-25T16:12:24.952Z,2.43
2018-07-25T16:14:53.440Z,2.10
2018-07-25T16:17:21.387Z,2.30
2018-07-25T16:19:49.324Z,3.47
2018-07-25T16:22:17.144Z,2.80
2018-07-25T16:24:45.108Z,3.43
2018-07-25T16:27:13.724Z,3.00
2018-07-25T16:29:42.568Z,3.10
2018-07-25T16:32:10.526Z,2.93
2018-07-25T16:34:38.500Z,3.70
2018-07-25T16:37:06.482Z,3.03
2018-07-25T16:39:34.420Z,2.80
2018-07-25T16:42:02.234Z,3.23
2018-07-25T16:44:30.204Z,3.20
2018-07-25T16:46:58.468Z,3.87
2018-07-25T16:49:26.436Z,3.10
2018-07-25T16:51:54.415Z,2.50
2018-07-25T16:54:23.035Z,2.70
2018-07-25T16:56:51.340Z,2.50
2018-07-25T16:59:19.233Z,2.90
2018-07-25T17:01:47.151Z,3.07
2018-07-25T17:04:15.423Z,3.10
2018-07-25T17:06:43.394Z,2.53
2018-07-25T17:09:12.249Z,2.60
2018-07-25T17:11:40.531Z,2.63
2018-07-25T17:14:08.495Z,2.67
2018-07-25T17:16:36.512Z,2.23
2018-07-25T17:19:04.469Z,2.10
2018-07-25T17:21:33.324Z,1.87
2018-07-25T17:24:01.882Z,2.47
2018-07-25T17:26:31.414Z,2.60
2018-07-25T17:28:59.333Z,2.40
2018-07-25T17:31:28.235Z,2.40
2018-07-25T17:33:55.995Z,2.40
2018-07-25T17:36:23.921Z,2.70
2018-07-25T17:38:51.818Z,2.27
2018-07-25T17:41:19.811Z,2.97
2018-07-25T17:43:47.780Z,2.77
2018-07-25T17:46:15.609Z,2.60
2018-07-25T17:48:44.078Z,2.20
2018-07-25T17:51:12.512Z,3.30
2018-07-25T17:53:40.309Z,2.47
2018-07-25T17:56:08.302Z,4.47
2018-07-25T17:58:36.279Z,2.80
2018-07-25T18:01:04.738Z,2.63
2018-07-25T18:03:32.778Z,2.47
2018-07-25T18:06:00.978Z,2.33
2018-07-25T18:08:28.937Z,2.33
2018-07-25T18:10:56.893Z,2.47
2018-07-25T18:13:30.483Z,2.23
2018-07-25T18:15:58.473Z,2.40
2018-07-25T18:18:26.255Z,3.40
2018-07-25T18:20:54.821Z,2.80
2018-07-25T18:23:22.882Z,3.33
2018-07-25T18:25:51.445Z,2.93
2018-07-25T18:28:19.444Z,2.50
2018-07-25T18:30:48.128Z,2.67
2018-07-25T18:33:16.770Z,7.07
2018-07-25T18:35:45.347Z,7.63
2018-07-25T18:38:13.288Z,3.60
2018-07-25T18:40:42.071Z,3.10
2018-07-25T18:43:10.952Z,3.10
2018-07-25T18:45:39.745Z,3.60
2018-07-25T18:48:07.793Z,4.80
2018-07-25T18:50:36.568Z,4.60
2018-07-25T18:53:04.792Z,4.70
2018-07-25T18:55:32.772Z,3.67
2018-07-25T18:58:00.776Z,3.17
2018-07-25T19:00:29.547Z,3.40
2018-07-25T19:02:58.371Z,3.43
2018-07-25T19:05:30.668Z,3.10
2018-07-25T19:08:00.883Z,3.80
2018-07-25T19:10:29.158Z,3.53
2018-07-25T19:12:58.071Z,3.70
2018-07-25T19:15:31.560Z,3.67
2018-07-25T19:18:00.838Z,4.00
2018-07-25T19:20:29.545Z,3.97
2018-07-25T19:22:57.580Z,3.30
2018-07-25T19:25:25.587Z,3.00
2018-07-25T19:27:53.333Z,3.83
2018-07-25T19:30:21.970Z,3.93
2018-07-25T19:32:50.521Z,3.23
2018-07-25T19:35:19.165Z,3.27
2018-07-25T19:37:47.125Z,3.50
2018-07-25T19:40:16.392Z,3.70
2018-07-25T19:42:44.376Z,3.20
2018-07-25T19:45:12.346Z,3.43
2018-07-25T19:47:40.899Z,3.70
2018-07-25T19:50:09.456Z,3.73
2018-07-25T19:52:37.451Z,4.20
2018-07-25T19:55:05.552Z,3.70
2018-07-25T19:57:33.508Z,4.07
2018-07-25T20:00:01.420Z,3.47
2018-07-25T20:02:29.893Z,3.80
2018-07-25T20:04:59.276Z,4.10
2018-07-25T20:07:27.979Z,4.53
2018-07-25T20:09:56.561Z,3.93
2018-07-25T20:12:24.510Z,4.20
2018-07-25T20:14:58.124Z,3.83
2018-07-25T20:17:26.059Z,4.17
2018-07-25T20:19:54.152Z,4.40
2018-07-25T20:22:22.083Z,4.27
2018-07-25T20:24:49.837Z,4.33
2018-07-25T20:27:17.730Z,4.70
2018-07-25T20:29:46.340Z,4.47
2018-07-25T20:32:14.358Z,4.37
2018-07-25T20:34:42.154Z,4.20
2018-07-25T20:37:10.071Z,3.93
2018-07-25T20:39:38.059Z,4.57
2018-07-25T20:42:05.935Z,4.00
2018-07-25T20:44:33.937Z,5.20
2018-07-25T20:47:02.029Z,4.47
2018-07-25T20:49:29.966Z,3.93
2018-07-25T20:51:58.079Z,4.40
2018-07-25T20:54:26.514Z,4.70
2018-07-25T20:56:55.065Z,4.93
2018-07-25T20:59:22.864Z,4.07
2018-07-25T21:01:51.318Z,4.73
2018-07-25T21:04:19.258Z,5.60
2018-07-25T21:06:47.182Z,4.77
2018-07-25T21:09:15.732Z,5.73
2018-07-25T21:11:48.743Z,4.57
2018-07-25T21:14:16.748Z,4.47
2018-07-25T21:16:44.601Z,5.30
2018-07-25T21:19:12.764Z,5.43
2018-07-25T21:21:41.307Z,4.03
2018-07-25T21:24:10.112Z,5.30
2018-07-25T21:26:37.897Z,5.10
2018-07-25T21:29:06.465Z,5.00
2018-07-25T21:31:34.344Z,5.10
2018-07-25T21:34:04.183Z,5.00
2018-07-25T21:36:32.139Z,5.20
2018-07-25T21:39:00.113Z,5.37
2018-07-25T21:41:28.593Z,5.87
2018-07-25T21:43:56.534Z,4.40
2018-07-25T21:46:24.334Z,4.80
2018-07-25T21:48:52.832Z,5.43
2018-07-25T21:51:22.000Z,5.10
2018-07-25T21:53:49.954Z,6.50
2018-07-25T21:56:18.006Z,4.40
2018-07-25T21:58:47.171Z,5.43
2018-07-25T22:01:17.861Z,4.93
2018-07-25T22:03:46.646Z,6.00
2018-07-25T22:06:15.415Z,5.20
2018-07-25T22:08:44.545Z,6.10
2018-07-25T22:11:13.071Z,6.13
2018-07-25T22:13:46.640Z,6.30
2018-07-25T22:16:14.544Z,5.60
2018-07-25T22:18:43.112Z,5.77
2018-07-25T22:21:11.805Z,5.83
2018-07-25T22:23:39.746Z,5.40
2018-07-25T22:26:08.358Z,5.20
2018-07-25T22:28:36.253Z,5.43
2018-07-25T22:31:04.206Z,5.67
2018-07-25T22:33:32.090Z,4.80
2018-07-25T22:36:00.043Z,5.47
2018-07-25T22:38:28.468Z,5.50
2018-07-25T22:40:56.220Z,5.10
2018-07-25T22:43:24.764Z,5.97
2018-07-25T22:45:53.270Z,5.80
2018-07-25T22:48:21.126Z,5.40
2018-07-25T22:50:49.015Z,5.80
2018-07-25T22:53:16.945Z,5.93
2018-07-25T22:55:45.709Z,5.17
2018-07-25T22:58:13.623Z,6.40
2018-07-25T23:00:41.666Z,5.20
2018-07-25T23:03:09.616Z,5.10
2018-07-25T23:05:38.502Z,4.97
2018-07-25T23:08:07.470Z,5.57
2018-07-25T23:10:35.395Z,6.37
2018-07-25T23:13:03.292Z,5.30
2018-07-25T23:15:31.727Z,5.77
2018-07-25T23:17:59.710Z,5.20
2018-07-25T23:20:28.346Z,5.80
2018-07-25T23:23:00.573Z,6.03
2018-07-25T23:25:29.734Z,5.23
2018-07-25T23:27:58.894Z,6.07
2018-07-25T23:30:28.085Z,5.70
2018-07-25T23:32:55.996Z,5.47
2018-07-25T23:35:24.418Z,6.13
2018-07-25T23:37:53.667Z,5.50
2018-07-25T23:40:21.625Z,5.70
2018-07-25T23:42:50.083Z,5.50
2018-07-25T23:45:18.244Z,5.70
2018-07-25T23:47:46.164Z,5.60
2018-07-25T23:50:14.082Z,6.27
2018-07-25T23:52:42.000Z,5.90
2018-07-25T23:55:10.161Z,5.60
2018-07-25T23:57:37.999Z,5.00
